Time;durP1;ratioP1;P1;durP2;ratioP2;P2;SDS_P1;SDS_P2;PMS_P1;PMS_P2;Temp;Humidity;BMP_temperature;BMP_pressure;BME280_temperature;BME280_humidity;BME280_pressure;Samples;Min_cycle;Max_cycle;Signal;HPM_P1;HPM_P2
2022/11/21 00:01:28;;;;;;;17.80;12.80;;;;;;;0.91;100.00;100661.06;5057917;28;20413;-87
2022/11/21 00:03:57;;;;;;;20.23;13.57;;;;;;;0.91;100.00;100655.00;5046310;28;20513;-87
2022/11/21 00:06:25;;;;;;;19.67;13.35;;;;;;;0.87;100.00;100655.69;5042804;28;20042;-87
2022/11/21 00:08:55;;;;;;;17.77;10.87;;;;;;;0.86;100.00;100652.22;5033047;28;20079;-87
2022/11/21 00:11:24;;;;;;;20.67;13.48;;;;;;;0.84;100.00;100651.28;5021227;28;20288;-88
2022/11/21 00:13:52;;;;;;;21.63;13.32;;;;;;;0.83;100.00;100652.09;5037967;28;20046;-87
2022/11/21 00:16:20;;;;;;;19.75;12.75;;;;;;;0.81;100.00;100645.97;5035847;28;20064;-85
2022/11/21 00:18:50;;;;;;;20.25;13.82;;;;;;;0.78;100.00;100657.09;5037380;28;20048;-85
2022/11/21 00:21:19;;;;;;;22.88;14.10;;;;;;;0.76;100.00;100647.50;5034837;28;20060;-86
2022/11/21 00:23:48;;;;;;;17.83;12.32;;;;;;;0.71;100.00;100647.31;5074596;28;20049;-85
2022/11/21 00:26:16;;;;;;;18.83;13.18;;;;;;;0.69;100.00;100645.50;5025568;28;20041;-85
2022/11/21 00:28:45;;;;;;;18.98;12.50;;;;;;;0.65;100.00;100635.81;5000727;28;20479;-86
2022/11/21 00:31:22;;;;;;;21.88;13.35;;;;;;;0.60;100.00;100638.22;4986469;28;20759;-85
2022/11/21 00:33:50;;;;;;;17.33;12.43;;;;;;;0.54;100.00;100633.66;5033356;28;20065;-86
2022/11/21 00:36:19;;;;;;;18.75;13.82;;;;;;;0.51;100.00;100623.19;5025541;28;20071;-85
2022/11/21 00:38:47;;;;;;;19.10;13.00;;;;;;;0.46;100.00;100629.88;5053090;28;20041;-85
2022/11/21 00:41:15;;;;;;;20.27;13.43;;;;;;;0.41;100.00;100621.03;5002214;28;20048;-85
2022/11/21 00:43:44;;;;;;;19.90;13.45;;;;;;;0.35;100.00;100626.84;5011143;28;20037;-85
2022/11/21 00:46:12;;;;;;;18.50;12.35;;;;;;;0.29;100.00;100621.44;5038435;28;20045;-85
2022/11/21 00:48:40;;;;;;;18.13;12.35;;;;;;;0.26;100.00;100625.59;5046771;28;20516;-85
2022/11/21 00:51:09;;;;;;;17.92;12.70;;;;;;;0.21;100.00;100621.91;5040468;28;20052;-85
2022/11/21 00:53:37;;;;;;;22.20;14.02;;;;;;;0.15;100.00;100620.88;5055531;28;20449;-85
2022/11/21 00:56:06;;;;;;;21.23;13.23;;;;;;;0.11;100.00;100615.47;5054512;28;20057;-86
2022/11/21 00:58:35;;;;;;;18.55;12.68;;;;;;;0.07;100.00;100621.34;4994628;28;20041;-86
2022/11/21 01:01:10;;;;;;;19.83;13.13;;;;;;;0.03;100.00;100624.66;5004204;28;20045;-85
2022/11/21 01:03:39;;;;;;;20.45;13.30;;;;;;;-0.01;100.00;100632.28;5036650;28;20041;-85
2022/11/21 01:06:14;;;;;;;17.73;12.57;;;;;;;-0.06;100.00;100625.13;5057040;28;20050;-85
2022/11/21 01:08:43;;;;;;;21.05;12.07;;;;;;;-0.09;100.00;100618.13;5059292;28;20052;-85
2022/11/21 01:11:16;;;;;;;18.88;12.77;;;;;;;-0.13;100.00;100621.41;5032345;28;20387;-85
2022/11/21 01:13:45;;;;;;;18.13;12.70;;;;;;;-0.16;100.00;100625.56;5039684;28;20058;-85
2022/11/21 01:16:21;;;;;;;21.77;12.95;;;;;;;-0.18;100.00;100622.91;5038967;28;20072;-86
2022/11/21 01:18:50;;;;;;;18.83;13.18;;;;;;;-0.21;100.00;100620.19;5047650;28;20037;-85
2022/11/21 01:21:27;;;;;;;17.10;12.50;;;;;;;-0.24;100.00;100620.06;5043214;28;20045;-85
2022/11/21 01:23:58;;;;;;;18.63;12.80;;;;;;;-0.26;100.00;100626.88;5046359;28;20542;-85
2022/11/21 01:26:29;;;;;;;20.33;13.50;;;;;;;-0.30;100.00;100630.13;5039753;28;20045;-85
2022/11/21 01:28:58;;;;;;;19.40;13.23;;;;;;;-0.31;100.00;100630.97;5037804;28;20041;-85
2022/11/21 01:31:28;;;;;;;18.02;13.10;;;;;;;-0.34;100.00;100628.25;5038633;28;20055;-85
2022/11/21 01:33:59;;;;;;;21.08;13.10;;;;;;;-0.35;100.00;100631.66;5057626;28;20045;-85
2022/11/21 01:36:33;;;;;;;19.52;13.95;;;;;;;-0.38;100.00;100624.63;5050074;28;20395;-85
2022/11/21 01:39:05;;;;;;;21.17;13.40;;;;;;;-0.46;100.00;100629.47;5025424;28;20037;-85
2022/11/21 01:41:36;;;;;;;23.05;15.15;;;;;;;-0.50;100.00;100635.34;5002198;28;20037;-85
2022/11/21 01:44:26;;;;;;;23.40;14.25;;;;;;;-0.52;100.00;100634.38;5024589;28;20048;-85
2022/11/21 01:46:55;;;;;;;22.63;13.88;;;;;;;-0.52;100.00;100630.91;5042702;28;20041;-85
2022/11/21 01:49:25;;;;;;;23.30;14.10;;;;;;;-0.49;100.00;100624.19;5041204;28;20052;-85
2022/11/21 01:52:12;;;;;;;22.80;15.00;;;;;;;-0.47;100.00;100625.13;5051641;28;20048;-85
2022/11/21 01:54:45;;;;;;;19.95;13.63;;;;;;;-0.43;100.00;100624.44;5049720;28;20045;-85
2022/11/21 01:57:19;;;;;;;20.00;13.40;;;;;;;-0.37;100.00;100631.59;5061600;28;20044;-85
2022/11/21 02:00:12;;;;;;;19.95;13.55;;;;;;;-0.32;100.00;100629.19;5032349;28;20412;-85
2022/11/21 02:02:46;;;;;;;23.98;14.57;;;;;;;-0.28;100.00;100631.13;5053412;28;20041;-85
2022/11/21 02:05:19;;;;;;;22.13;14.18;;;;;;;-0.24;100.00;100633.88;5039333;28;20056;-86
2022/11/21 02:07:50;;;;;;;21.83;14.57;;;;;;;-0.19;100.00;100626.31;5024782;28;20037;-85
2022/11/21 02:10:19;;;;;;;20.33;14.30;;;;;;;-0.14;100.00;100624.81;5049657;28;20037;-85
2022/11/21 02:12:52;;;;;;;20.35;13.73;;;;;;;-0.10;100.00;100629.28;5037594;28;20033;-85
2022/11/21 02:15:24;;;;;;;19.75;14.20;;;;;;;-0.05;100.00;100635.56;5037151;28;20406;-85
2022/11/21 02:17:53;;;;;;;18.95;14.02;;;;;;;0.01;100.00;100634.06;5039465;28;20045;-85
2022/11/21 02:20:24;;;;;;;21.67;15.40;;;;;;;0.03;100.00;100638.47;5038157;28;20041;-84
2022/11/21 02:23:16;;;;;;;26.30;15.52;;;;;;;0.02;100.00;100634.13;5038719;28;20049;-85
2022/11/21 02:25:44;;;;;;;22.95;14.10;;;;;;;0.04;100.00;100626.41;5041500;28;20033;-84
2022/11/21 02:28:20;;;;;;;25.10;14.55;;;;;;;0.07;100.00;100621.34;5040393;28;20052;-85
2022/11/21 02:30:48;;;;;;;21.88;14.32;;;;;;;0.08;100.00;100621.44;5038537;28;20040;-85
2022/11/21 02:33:19;;;;;;;22.90;15.30;;;;;;;0.11;100.00;100631.03;5062974;28;20389;-85
2022/11/21 02:35:58;;;;;;;22.17;15.07;;;;;;;0.13;100.00;100625.09;5053440;28;20037;-85
2022/11/21 02:38:32;;;;;;;24.00;15.68;;;;;;;0.15;100.00;100623.47;5062387;28;20041;-86
2022/11/21 02:41:25;;;;;;;21.58;15.18;;;;;;;0.12;100.00;100628.50;5037713;28;20495;-85
2022/11/21 02:44:18;;;;;;;22.27;14.82;;;;;;;0.14;100.00;100631.16;5061928;28;20402;-85
2022/11/21 02:46:49;;;;;;;22.38;14.70;;;;;;;0.16;100.00;100621.75;5027446;28;20049;-85
2022/11/21 02:49:22;;;;;;;;;;;;;;;0.18;100.00;100607.16;5056959;28;20507;-85
2022/11/21 02:51:50;;;;;;;27.48;15.60;;;;;;;0.20;100.00;100602.91;5034002;28;19921;-85
2022/11/21 02:54:18;;;;;;;23.33;15.15;;;;;;;0.21;100.00;100596.00;5040031;28;20048;-85
2022/11/21 02:56:46;;;;;;;22.55;14.95;;;;;;;0.22;100.00;100606.44;5037717;28;20048;-86
2022/11/21 02:59:15;;;;;;;22.20;15.00;;;;;;;0.22;100.00;100609.03;5063151;28;20051;-85
2022/11/21 03:01:43;;;;;;;23.23;14.32;;;;;;;0.25;100.00;100613.47;5013614;28;20060;-85
2022/11/21 03:04:12;;;;;;;24.23;16.02;;;;;;;0.27;100.00;100604.94;5028135;28;20029;-85
2022/11/21 03:06:40;;;;;;;21.00;15.10;;;;;;;0.31;100.00;100605.94;5011969;28;20671;-85
2022/11/21 03:09:09;;;;;;;23.88;15.35;;;;;;;0.32;100.00;100621.56;5025492;28;20387;-86
2022/11/21 03:11:37;;;;;;;20.17;14.98;;;;;;;0.34;100.00;100619.00;5034983;28;20159;-85
2022/11/21 03:14:07;;;;;;;22.88;14.48;;;;;;;0.35;100.00;100618.19;5049628;28;20045;-85
2022/11/21 03:16:36;;;;;;;23.35;14.60;;;;;;;0.34;100.00;100616.41;5056203;28;20779;-86
2022/11/21 03:19:04;;;;;;;23.13;15.32;;;;;;;0.34;100.00;100614.72;5029634;28;20041;-85
2022/11/21 03:21:39;;;;;;;18.77;14.85;;;;;;;0.33;100.00;100612.94;5045604;28;20040;-85
2022/11/21 03:24:07;;;;;;;21.52;14.82;;;;;;;0.31;100.00;100604.22;5033237;28;20041;-85
2022/11/21 03:26:36;;;;;;;18.77;14.05;;;;;;;0.25;100.00;100598.81;5039823;28;20056;-85
2022/11/21 03:29:04;;;;;;;21.05;14.63;;;;;;;0.20;100.00;100595.13;5063831;28;20044;-85
2022/11/21 03:31:34;;;;;;;21.33;14.70;;;;;;;0.19;100.00;100602.03;5035315;28;20040;-85
2022/11/21 03:34:03;;;;;;;19.00;14.95;;;;;;;0.20;100.00;100600.31;5041089;28;20048;-85
2022/11/21 03:36:31;;;;;;;23.73;15.38;;;;;;;0.23;100.00;100610.81;5035466;28;20390;-86
2022/11/21 03:39:01;;;;;;;23.92;15.30;;;;;;;0.26;100.00;100605.75;5009266;28;20064;-85
2022/11/21 03:41:29;;;;;;;21.95;15.93;;;;;;;0.30;100.00;100602.47;5029606;28;20048;-85
2022/11/21 03:44:09;;;;;;;21.50;15.32;;;;;;;0.30;100.00;100598.97;5038378;28;20042;-85
2022/11/21 03:46:40;;;;;;;15.77;11.25;;;;;;;0.31;100.00;100593.88;5015080;28;20055;-85
2022/11/21 03:49:11;;;;;;;23.08;15.77;;;;;;;0.34;100.00;100588.81;5038132;28;20059;-84
2022/11/21 03:51:43;;;;;;;24.75;15.68;;;;;;;0.35;100.00;100593.16;5034637;28;20054;-85
2022/11/21 03:54:12;;;;;;;24.27;15.63;;;;;;;0.37;100.00;100588.91;5040953;28;20140;-85
2022/11/21 03:56:40;;;;;;;25.05;15.52;;;;;;;0.40;100.00;100595.94;5014856;28;20041;-85
2022/11/21 03:59:10;;;;;;;22.90;15.50;;;;;;;0.39;100.00;100602.81;5014891;28;20044;-85
2022/11/21 04:01:38;;;;;;;23.15;16.05;;;;;;;0.39;100.00;100607.13;5009711;28;20041;-85
2022/11/21 04:04:07;;;;;;;24.63;15.75;;;;;;;0.39;100.00;100601.94;5012050;28;20043;-85
2022/11/21 04:06:35;;;;;;;26.20;17.15;;;;;;;0.38;100.00;100598.47;5016511;28;20041;-85
2022/11/21 04:09:04;;;;;;;23.05;16.02;;;;;;;0.38;100.00;100592.41;5047424;28;20054;-85
2022/11/21 04:11:32;;;;;;;21.98;15.88;;;;;;;0.36;100.00;100592.34;5002335;28;20510;-85
2022/11/21 04:14:01;;;;;;;23.35;15.55;;;;;;;0.35;100.00;100590.56;5031150;28;20037;-85
2022/11/21 04:16:29;;;;;;;27.02;16.67;;;;;;;0.33;100.00;100587.03;5044031;28;20045;-85
2022/11/21 04:18:58;;;;;;;23.17;16.25;;;;;;;0.31;100.00;100586.09;5029415;28;20049;-85
2022/11/21 04:21:26;;;;;;;25.38;16.15;;;;;;;0.29;100.00;100574.78;5038155;28;20506;-85
2022/11/21 04:23:55;;;;;;;22.30;16.08;;;;;;;0.28;100.00;100578.19;5007982;28;20049;-85
2022/11/21 04:26:23;;;;;;;21.90;15.00;;;;;;;0.31;100.00;100573.13;5011507;28;20041;-85
2022/11/21 04:28:53;;;;;;;21.92;15.73;;;;;;;0.32;100.00;100563.63;5056859;28;20068;-85
2022/11/21 04:31:21;;;;;;;22.45;15.38;;;;;;;0.34;100.00;100567.16;5034306;28;20041;-86
2022/11/21 04:33:50;;;;;;;22.77;16.20;;;;;;;0.37;100.00;100562.13;5016652;28;20034;-86
2022/11/21 04:36:18;;;;;;;22.73;16.05;;;;;;;0.38;100.00;100561.31;5004675;28;20317;-85
2022/11/21 04:38:46;;;;;;;21.90;15.43;;;;;;;0.34;100.00;100560.31;5059133;28;20037;-84
2022/11/21 04:41:15;;;;;;;23.05;15.70;;;;;;;0.29;100.00;100554.03;5041594;28;20037;-84
2022/11/21 04:43:43;;;;;;;24.88;17.00;;;;;;;0.27;100.00;100550.50;5030369;28;20435;-85
2022/11/21 04:46:12;;;;;;;26.17;16.15;;;;;;;0.28;100.00;100560.03;5028314;28;20038;-85
2022/11/21 04:48:47;;;;;;;26.67;17.23;;;;;;;0.27;100.00;100565.19;5037106;28;20525;-85
2022/11/21 04:51:16;;;;;;;23.77;15.88;;;;;;;0.27;100.00;100560.00;5022858;28;20045;-86
2022/11/21 04:53:44;;;;;;;24.88;16.60;;;;;;;0.27;100.00;100565.19;5057311;28;20044;-85
2022/11/21 04:56:15;;;;;;;24.23;17.17;;;;;;;0.27;100.00;100550.50;5034292;28;20050;-85
2022/11/21 04:58:44;;;;;;;23.75;16.35;;;;;;;0.27;100.00;100545.31;5023945;28;20551;-85
2022/11/21 05:01:12;;;;;;;22.27;15.52;;;;;;;0.28;100.00;100539.28;5024888;28;20075;-85
2022/11/21 05:03:41;;;;;;;29.27;17.08;;;;;;;0.27;100.00;100536.66;5041053;28;20060;-85
2022/11/21 05:06:09;;;;;;;23.33;15.98;;;;;;;0.25;100.00;100540.91;5031656;28;20045;-85
2022/11/21 05:08:39;;;;;;;24.73;16.47;;;;;;;0.23;100.00;100538.25;5020350;28;20045;-85
2022/11/21 05:13:55;;;;;;;25.90;16.67;;;;;;;0.22;100.00;100531.28;5047193;28;20048;-85
2022/11/21 05:16:23;;;;;;;26.65;15.57;;;;;;;0.23;100.00;100521.78;5049494;28;20022;-85
2022/11/21 05:18:52;;;;;;;25.10;16.40;;;;;;;0.24;100.00;100516.69;5019460;28;20056;-85
2022/11/21 05:21:20;;;;;;;26.15;16.73;;;;;;;0.24;100.00;100508.03;5027673;28;20037;-85
2022/11/21 05:23:51;;;;;;;25.02;16.10;;;;;;;0.22;100.00;100509.69;5003086;28;20038;-85
2022/11/21 05:26:20;;;;;;;24.98;16.48;;;;;;;0.19;100.00;100523.41;5040508;28;20053;-86
2022/11/21 05:28:48;;;;;;;25.40;16.52;;;;;;;0.16;100.00;100511.19;5027184;28;20050;-86
2022/11/21 05:31:17;;;;;;;26.45;16.70;;;;;;;0.13;100.00;100518.88;5049826;28;20033;-85
2022/11/21 05:33:46;;;;;;;25.58;17.25;;;;;;;0.13;100.00;100517.97;5054461;28;20042;-85
2022/11/21 05:36:14;;;;;;;26.80;17.35;;;;;;;0.10;100.00;100518.72;5029643;28;20051;-86
2022/11/21 05:38:42;;;;;;;26.70;17.20;;;;;;;0.05;100.00;100519.38;5016663;28;20041;-86
2022/11/21 05:41:12;;;;;;;24.45;15.73;;;;;;;0.02;100.00;100524.41;5048956;28;20131;-86
2022/11/21 05:43:46;;;;;;;26.63;17.50;;;;;;;-0.03;100.00;100519.06;5049706;28;20037;-85
2022/11/21 05:46:17;;;;;;;25.92;16.98;;;;;;;-0.08;100.00;100513.69;5041470;28;20042;-85
2022/11/21 05:48:47;;;;;;;26.10;18.30;;;;;;;-0.13;100.00;100510.03;5029911;28;20520;-85
2022/11/21 05:51:17;;;;;;;23.63;16.25;;;;;;;-0.18;100.00;100508.97;5044351;28;20044;-85
2022/11/21 05:53:48;;;;;;;27.60;17.65;;;;;;;-0.21;100.00;100514.00;5036788;28;20064;-84
2022/11/21 05:56:18;;;;;;;25.40;17.20;;;;;;;-0.25;100.00;100515.56;5041492;28;20041;-85
2022/11/21 05:58:47;;;;;;;24.23;16.90;;;;;;;-0.30;100.00;100522.28;5034752;28;20490;-85
2022/11/21 06:03:25;;;;;;;27.15;18.08;;;;;;;-0.31;100.00;100524.81;5052473;28;20763;-85
2022/11/21 06:04:05;;;;;;;26.13;16.95;;;;;;;-0.37;100.00;100521.97;5044983;28;20524;-85
2022/11/21 06:06:34;;;;;;;26.63;18.20;;;;;;;-0.39;100.00;100519.31;5033146;28;20411;-85
2022/11/21 06:09:03;;;;;;;25.08;16.52;;;;;;;-0.43;100.00;100513.13;5025407;28;20495;-86
2022/11/21 06:11:32;;;;;;;24.17;16.87;;;;;;;-0.46;100.00;100510.38;4989687;28;20677;-85
2022/11/21 06:14:01;;;;;;;23.83;16.90;;;;;;;-0.50;100.00;100508.50;5032044;28;20299;-85
2022/11/21 06:16:29;;;;;;;28.73;18.40;;;;;;;-0.52;100.00;100502.38;5048771;28;20067;-82
2022/11/21 06:18:57;;;;;;;28.40;17.67;;;;;;;-0.54;100.00;100498.84;5055528;28;20502;-83
2022/11/21 06:21:28;;;;;;;27.45;17.58;;;;;;;-0.54;100.00;100493.66;5048081;28;20049;-83
2022/11/21 06:23:57;;;;;;;26.92;17.38;;;;;;;-0.55;100.00;100488.41;5026357;28;20045;-83
2022/11/21 06:26:27;;;;;;;29.35;16.83;;;;;;;-0.59;100.00;100482.22;5031012;28;20057;-82
2022/11/21 06:28:55;;;;;;;30.13;18.70;;;;;;;-0.61;100.00;100495.09;5074212;28;20041;-82
2022/11/21 06:31:26;;;;;;;29.55;17.50;;;;;;;-0.62;100.00;100500.22;5052353;28;20155;-83
2022/11/21 06:33:58;;;;;;;38.30;17.02;;;;;;;-0.63;100.00;100495.84;5018786;28;20411;-83
2022/11/21 06:36:27;;;;;;;26.80;17.25;;;;;;;-0.61;100.00;100515.78;5044787;28;20495;-81
2022/11/21 06:38:56;;;;;;;29.70;18.15;;;;;;;-0.59;100.00;100505.50;5049402;28;20037;-81
2022/11/21 06:41:25;;;;;;;26.70;17.65;;;;;;;-0.57;100.00;100495.22;5012191;28;20053;-83
2022/11/21 06:43:54;;;;;;;29.85;18.08;;;;;;;-0.57;100.00;100505.59;5032969;28;20040;-82
2022/11/21 06:46:23;;;;;;;28.23;17.45;;;;;;;-0.56;100.00;100489.25;5053239;28;20060;-83
2022/11/21 06:48:52;;;;;;;32.17;18.10;;;;;;;-0.55;100.00;100497.06;5051003;28;20041;-84
2022/11/21 06:51:23;;;;;;;32.22;18.00;;;;;;;-0.54;100.00;100498.84;5044682;28;20044;-82
2022/11/21 06:53:54;;;;;;;32.78;17.77;;;;;;;-0.53;100.00;100492.84;5019522;28;20048;-82
2022/11/21 06:56:24;;;;;;;40.50;20.17;;;;;;;-0.52;100.00;100485.97;5022971;28;20068;-82
2022/11/21 06:58:53;;;;;;;39.37;20.97;;;;;;;-0.52;100.00;100484.25;5023606;28;20037;-84
2022/11/21 07:01:22;;;;;;;34.00;19.45;;;;;;;-0.50;100.00;100487.78;5030725;28;20529;-84
2022/11/21 07:03:54;;;;;;;32.90;19.08;;;;;;;-0.46;100.00;100491.38;5040850;28;20689;-84
2022/11/21 07:06:22;;;;;;;30.25;18.60;;;;;;;-0.43;100.00;100500.16;5052187;28;20045;-83
2022/11/21 07:08:55;;;;;;;28.23;17.10;;;;;;;-0.37;100.00;100506.44;5031533;28;20033;-83
2022/11/21 07:11:43;;;;;;;27.33;17.92;;;;;;;-0.33;100.00;100516.09;5030110;28;20056;-83
2022/11/21 07:14:13;;;;;;;26.85;18.17;;;;;;;-0.31;100.00;100507.56;5024113;28;20045;-83
2022/11/21 07:16:41;;;;;;;26.52;17.10;;;;;;;-0.28;100.00;100512.00;5038926;28;20052;-84
2022/11/21 07:19:10;;;;;;;32.30;19.02;;;;;;;-0.28;100.00;100504.22;5010775;28;20033;-83
2022/11/21 07:21:38;;;;;;;31.92;18.13;;;;;;;-0.28;100.00;100507.69;5038849;28;20044;-84
2022/11/21 07:24:07;;;;;;;29.88;18.45;;;;;;;-0.27;100.00;100498.22;5036170;28;20036;-83
2022/11/21 07:26:36;;;;;;;29.55;18.92;;;;;;;-0.29;100.00;100489.50;5039325;28;20387;-84
2022/11/21 07:29:04;;;;;;;29.20;18.40;;;;;;;-0.29;100.00;100507.63;5024121;28;20385;-83
2022/11/21 07:31:33;;;;;;;25.52;17.33;;;;;;;-0.29;100.00;100510.22;5049354;28;20045;-84
2022/11/21 07:34:02;;;;;;;26.05;17.23;;;;;;;-0.30;100.00;100506.75;5035168;28;20041;-84
2022/11/21 07:36:32;;;;;;;25.83;17.27;;;;;;;-0.29;100.00;100502.44;5040595;28;20048;-84
2022/11/21 07:39:07;;;;;;;29.73;16.75;;;;;;;-0.32;100.00;100499.72;5016443;28;20413;-84
2022/11/21 07:41:35;;;;;;;30.30;17.25;;;;;;;-0.30;100.00;100513.63;5031025;28;20037;-83
2022/11/21 07:44:04;;;;;;;30.73;18.15;;;;;;;-0.30;100.00;100509.34;5007951;28;20054;-84
2022/11/21 07:46:32;;;;;;;28.95;18.30;;;;;;;-0.29;100.00;100515.41;5042720;28;20041;-83
2022/11/21 07:49:00;;;;;;;29.67;18.85;;;;;;;-0.28;100.00;100524.94;5015277;28;20037;-85
2022/11/21 07:51:31;;;;;;;27.95;16.83;;;;;;;-0.26;100.00;100531.94;5027184;28;20049;-83
2022/11/21 07:54:00;;;;;;;28.42;17.35;;;;;;;-0.24;100.00;100522.53;5033085;28;20049;-83
2022/11/21 07:56:28;;;;;;;25.38;17.17;;;;;;;-0.19;100.00;100525.31;5034379;28;20537;-83
2022/11/21 07:58:57;;;;;;;25.48;17.05;;;;;;;-0.15;100.00;100526.31;5034116;28;20044;-84
2022/11/21 08:01:25;;;;;;;25.08;17.40;;;;;;;-0.11;100.00;100515.28;5031447;28;20053;-83
2022/11/21 08:03:54;;;;;;;26.73;17.13;;;;;;;-0.09;100.00;100514.50;5042329;28;20049;-83
2022/11/21 08:06:22;;;;;;;27.15;17.77;;;;;;;-0.06;100.00;100513.75;5029521;28;20049;-84
2022/11/21 08:08:52;;;;;;;29.73;17.73;;;;;;;-0.04;100.00;100502.66;5024187;28;20044;-84
2022/11/21 08:11:21;;;;;;;22.95;14.68;;;;;;;-0.03;100.00;100488.84;5023027;28;20050;-85
2022/11/21 08:13:50;;;;;;;31.07;18.57;;;;;;;-0.03;100.00;100488.84;5009276;28;20029;-83
2022/11/21 08:16:19;;;;;;;29.73;18.70;;;;;;;-0.04;100.00;100471.56;5054150;28;20049;-83
2022/11/21 08:18:50;;;;;;;27.27;18.23;;;;;;;-0.04;100.00;100471.56;5032936;28;20041;-84
2022/11/21 08:21:18;;;;;;;29.83;18.88;;;;;;;-0.05;100.00;100472.38;5020613;28;20036;-83
2022/11/21 08:23:48;;;;;;;27.65;18.33;;;;;;;-0.05;100.00;100479.25;5016060;28;20056;-84
2022/11/21 08:26:16;;;;;;;29.23;19.10;;;;;;;-0.04;100.00;100481.91;5045834;28;20040;-84
2022/11/21 08:28:45;;;;;;;29.00;18.52;;;;;;;-0.01;100.00;100471.66;5039382;28;20402;-84
2022/11/21 08:31:13;;;;;;;32.70;18.70;;;;;;;0.03;100.00;100476.97;5040743;28;20048;-84
2022/11/21 08:33:41;;;;;;;29.10;18.83;;;;;;;0.05;100.00;100480.50;5026474;28;20025;-84
2022/11/21 08:36:10;;;;;;;36.83;19.40;;;;;;;0.09;100.00;100472.03;5044672;28;20042;-82
2022/11/21 08:38:45;;;;;;;27.42;17.95;;;;;;;0.12;100.00;100472.16;5030588;28;20041;-83
2022/11/21 08:44:01;;;;;;;31.85;19.35;;;;;;;0.22;100.00;100471.69;5042201;28;20033;-82
2022/11/21 08:46:32;;;;;;;32.38;19.85;;;;;;;0.28;100.00;100469.31;5015381;28;20115;-83
2022/11/21 08:49:00;;;;;;;28.80;18.25;;;;;;;0.32;100.00;100466.06;5016798;28;20045;-81
2022/11/21 08:51:29;;;;;;;29.10;18.00;;;;;;;0.36;100.00;100459.28;5034402;28;20055;-82
2022/11/21 08:53:58;;;;;;;29.75;19.70;;;;;;;0.42;100.00;100450.81;5041984;28;20049;-82
2022/11/21 08:56:30;;;;;;;29.25;19.27;;;;;;;0.43;100.00;100448.28;5016069;28;20411;-83
2022/11/21 08:58:58;;;;;;;29.27;19.20;;;;;;;0.48;100.00;100453.66;5045505;28;20041;-84
2022/11/21 09:01:27;;;;;;;29.73;19.77;;;;;;;0.52;100.00;100455.53;5036864;28;20197;-84
2022/11/21 09:03:55;;;;;;;29.40;20.17;;;;;;;0.56;100.00;100447.03;5035189;28;20048;-83
2022/11/21 09:06:24;;;;;;;32.33;19.33;;;;;;;0.63;100.00;100449.03;5019612;28;20062;-84
2022/11/21 09:08:53;;;;;;;29.90;20.20;;;;;;;0.69;100.00;100449.25;5047056;28;20048;-84
2022/11/21 09:11:23;;;;;;;28.90;19.27;;;;;;;0.75;100.00;100446.00;5052064;28;20044;-85
2022/11/21 09:19:29;;;;;;;31.20;18.75;;;;;;;0.82;100.00;100453.19;5026698;28;20052;-84
2022/11/21 09:21:58;;;;;;;27.92;18.67;;;;;;;0.83;100.00;100441.09;5045496;28;20045;-82
2022/11/21 09:24:27;;;;;;;29.88;18.77;;;;;;;0.84;100.00;100435.09;5019408;28;20525;-83
2022/11/21 09:26:55;;;;;;;29.63;18.70;;;;;;;0.89;100.00;100436.13;5025663;28;20502;-83
2022/11/21 09:29:23;;;;;;;31.33;19.00;;;;;;;0.93;100.00;100431.09;5029956;28;20039;-82
2022/11/21 09:31:53;;;;;;;29.27;18.20;;;;;;;0.99;100.00;100435.63;5028996;28;20041;-82
2022/11/21 09:34:21;;;;;;;29.13;18.45;;;;;;;1.03;100.00;100428.84;5017148;28;20041;-83
2022/11/21 09:36:51;;;;;;;34.92;19.13;;;;;;;1.07;100.00;100422.94;5046611;28;20041;-84
2022/11/21 09:39:20;;;;;;;28.35;19.33;;;;;;;1.10;100.00;100418.72;5043653;28;20053;-83
2022/11/21 09:42:09;;;;;;;26.33;17.83;;;;;;;1.14;100.00;100419.72;5034067;28;20048;-83
2022/11/21 09:44:59;;;;;;;49.08;18.52;;;;;;;1.22;100.00;100412.19;5034452;28;20053;-83
2022/11/21 09:47:35;;;;;;;28.60;17.83;;;;;;;1.26;100.00;100407.13;5029047;28;20041;-83
2022/11/21 09:50:13;;;;;;;26.20;18.10;;;;;;;1.30;100.00;100402.94;5011437;28;20521;-82
2022/11/21 09:53:14;;;;;;;29.52;18.65;;;;;;;1.33;100.00;100403.94;5053132;28;20503;-83
2022/11/21 09:55:50;;;;;;;27.27;17.75;;;;;;;1.40;100.00;100407.63;5010918;28;20554;-82
2022/11/21 09:58:36;;;;;;;25.92;18.05;;;;;;;1.45;100.00;100399.97;5034804;28;20060;-82
2022/11/21 10:01:05;;;;;;;30.52;18.35;;;;;;;1.48;100.00;100407.88;5033993;28;20378;-83
2022/11/21 10:03:52;;;;;;;26.10;18.83;;;;;;;1.53;100.00;100398.50;5016865;28;20380;-83
2022/11/21 10:06:23;;;;;;;31.27;18.90;;;;;;;1.53;100.00;100394.22;5012580;28;20057;-83
2022/11/21 10:09:11;;;;;;;24.88;17.58;;;;;;;1.55;100.00;100387.34;5032490;28;20045;-82
2022/11/21 10:14:59;;;;;;;26.23;17.70;;;;;;;1.59;100.00;100385.72;5044493;28;20057;-83
2022/11/21 10:17:40;;;;;;;23.75;15.82;;;;;;;1.60;100.00;100374.50;5042026;28;20053;-82
2022/11/21 10:20:28;;;;;;;23.30;16.40;;;;;;;1.63;100.00;100365.94;5024098;28;20045;-83
2022/11/21 10:23:05;;;;;;;22.73;15.48;;;;;;;1.64;100.00;100355.56;5044943;28;20026;-82
2022/11/21 10:25:38;;;;;;;20.50;14.88;;;;;;;1.68;100.00;100359.16;5030849;28;20037;-83
2022/11/21 10:28:31;;;;;;;21.85;15.73;;;;;;;1.70;100.00;100360.06;5032796;28;20045;-82
2022/11/21 10:31:03;;;;;;;24.77;16.92;;;;;;;1.71;100.00;100351.47;5032916;28;20060;-82
2022/11/21 10:33:35;;;;;;;22.95;15.63;;;;;;;1.73;100.00;100337.69;5043090;28;20060;-83
2022/11/21 10:36:06;;;;;;;24.02;15.35;;;;;;;1.75;100.00;100330.81;5021871;28;20053;-82
2022/11/21 10:38:42;;;;;;;22.35;15.45;;;;;;;1.81;100.00;100331.84;5038527;28;20033;-83
2022/11/21 10:41:16;;;;;;;23.90;16.15;;;;;;;1.85;100.00;100328.50;5037535;28;20045;-83
2022/11/21 10:46:56;;;;;;;23.35;16.02;;;;;;;1.93;100.00;100319.22;5036646;28;20049;-83
2022/11/21 10:49:28;;;;;;;23.85;14.52;;;;;;;1.94;100.00;100314.06;5039146;28;20042;-83
2022/11/21 10:52:04;;;;;;;22.80;15.60;;;;;;;1.97;100.00;100304.56;5015492;28;20042;-83
2022/11/21 10:55:07;;;;;;;23.17;15.75;;;;;;;1.98;100.00;100295.97;5039467;28;20040;-83
2022/11/21 10:57:47;;;;;;;20.58;14.75;;;;;;;2.00;100.00;100302.94;5051618;28;20049;-82
2022/11/21 11:00:23;;;;;;;24.53;15.13;;;;;;;2.01;100.00;100293.47;5035200;28;20045;-82
2022/11/21 11:02:54;;;;;;;23.27;15.93;;;;;;;2.02;100.00;100300.41;5014561;28;20300;-82
2022/11/21 11:05:33;;;;;;;23.60;16.50;;;;;;;2.05;100.00;100292.72;5051790;28;20056;-83
2022/11/21 11:08:10;;;;;;;23.10;15.30;;;;;;;2.09;100.00;100294.56;5019270;28;20048;-82
2022/11/21 11:10:44;;;;;;;21.65;15.48;;;;;;;2.12;100.00;100292.06;5045287;28;20052;-82
2022/11/21 11:13:35;;;;;;;19.40;13.75;;;;;;;2.13;100.00;100293.78;5051689;28;20045;-82
2022/11/21 11:16:17;;;;;;;22.52;15.80;;;;;;;2.12;100.00;100297.25;5054716;28;20040;-81
2022/11/21 11:19:08;;;;;;;22.77;14.75;;;;;;;2.13;100.00;100291.19;5026850;28;20045;-82
2022/11/21 11:21:37;;;;;;;24.10;16.05;;;;;;;2.13;100.00;100288.59;5011576;28;20045;-82
2022/11/21 11:24:09;;;;;;;23.55;15.38;;;;;;;2.17;100.00;100281.78;5039890;28;20054;-83
2022/11/21 11:26:46;;;;;;;19.15;13.82;;;;;;;2.19;100.00;100275.75;5043829;28;20044;-82
2022/11/21 11:29:19;;;;;;;21.98;14.82;;;;;;;2.20;100.00;100272.34;5046912;28;20044;-83
2022/11/21 11:31:58;;;;;;;19.25;14.90;;;;;;;2.24;100.00;100279.38;5045941;28;20052;-81
2022/11/21 11:34:34;;;;;;;21.42;14.82;;;;;;;2.30;100.00;100279.53;5024483;28;20041;-82
2022/11/21 11:37:11;;;;;;;21.35;15.02;;;;;;;2.36;100.00;100265.81;5007708;28;20522;-82
2022/11/21 11:40:09;;;;;;;21.35;15.55;;;;;;;2.39;100.00;100265.94;5055449;28;20053;-82
2022/11/21 11:49:02;;;;;;;21.52;14.88;;;;;;;2.43;100.00;100253.88;5040726;28;20041;-82
2022/11/21 11:51:54;;;;;;;21.27;15.93;;;;;;;2.43;100.00;100239.16;5060954;28;20065;-82